| time (UTC) | temp C | wind direction | speed KPH | gust KPH | rain 1hr cm | rain 24hr cm | rain mn cm | humidity % | barometer mb |
| 20260508043107 | 8 | 4 | 1.6 | 6.4 | 0.00 | 3.12 | 0.00 | 99 | 1001.7 |
| 20260508041555 | 8 | 211 | 1.6 | 4.8 | 0.00 | 3.12 | 0.00 | 99 | 1001.7 |
| 20260508040057 | 8 | 211 | 3.2 | 6.4 | 0.00 | 3.12 | 0.00 | 99 | 1001.6 |
| 20260508034558 | 9 | 211 | 1.6 | 4.8 | 0.00 | 3.12 | 0.00 | 99 | 1001.9 |
| 20260508033058 | 9 | 211 | 1.6 | 4.8 | 0.00 | 3.12 | 0.00 | 99 | 1001.9 |
| 20260508031558 | 9 | 0 | 0.0 | 12.9 | 0.00 | 3.12 | 0.00 | 99 | 1001.9 |
| 20260508030057 | 9 | 174 | 0.0 | 9.7 | 0.00 | 3.12 | 0.00 | 99 | 1002.1 |
| 20260508024559 | 9 | 0 | 1.6 | 6.4 | 0.00 | 3.12 | 3.12 | 99 | 1002.1 |
| 20260508023059 | 9 | 60 | 0.0 | 8.0 | 0.00 | 3.12 | 3.12 | 99 | 1002.1 |
| 20260508021556 | 9 | 253 | 1.6 | 6.4 | 0.00 | 3.12 | 3.12 | 99 | 1002.1 |
| 20260508020057 | 9 | 112 | 3.2 | 9.7 | 0.00 | 3.12 | 3.12 | 99 | 1002.2 |
| 20260508014557 | 9 | 125 | 0.0 | 4.8 | 0.00 | 3.12 | 3.12 | 99 | 1001.9 |
| 20260508013059 | 10 | 138 | 1.6 | 4.8 | 0.00 | 3.12 | 3.12 | 99 | 1001.7 |
| 20260508011556 | 9 | 126 | 1.6 | 6.4 | 0.00 | 3.12 | 3.12 | 99 | 1001.6 |
| 20260508010057 | 10 | 294 | 0.0 | 3.2 | 0.00 | 3.12 | 3.12 | 99 | 1001.6 |
| 20260508004610 | 10 | 0 | 1.6 | 4.8 | 0.00 | 3.12 | 3.12 | 99 | 1001.8 |
| 20260508003056 | 10 | 276 | 1.6 | 6.4 | 0.00 | 3.12 | 3.12 | 99 | 1002.1 |
| 20260508001557 | 10 | 145 | 3.2 | 12.9 | 0.00 | 3.12 | 3.12 | 99 | 1002.2 |
| 20260508000057 | 10 | 137 | 4.8 | 11.3 | 0.00 | 3.12 | 3.12 | 99 | 1002.2 |
| 20260507234600 | 10 | 147 | 3.2 | 6.4 | 0.00 | 3.12 | 3.12 | 99 | 1002.3 |
| 20260507233055 | 10 | 173 | 1.6 | 6.4 | 0.00 | 3.12 | 3.12 | 99 | 1002.3 |
| 20260507231650 | 10 | 173 | 1.6 | 12.9 | 0.00 | 3.12 | 3.12 | 99 | 1002.2 |
| 20260507230105 | 10 | 162 | 8.0 | 24.1 | 0.00 | 3.12 | 3.12 | 99 | 1002.3 |
| 20260507224556 | 10 | 147 | 8.0 | 19.3 | 0.00 | 3.12 | 3.12 | 99 | 1002.3 |
| 20260507223100 | 10 | 151 | 11.3 | 19.3 | 0.00 | 3.12 | 3.12 | 98 | 1002.3 |
| 20260507221557 | 10 | 146 | 4.8 | 16.1 | 0.00 | 3.12 | 3.12 | 98 | 1002.4 |
| 20260507220057 | 10 | 124 | 8.0 | 17.7 | 0.03 | 3.12 | 3.12 | 99 | 1002.7 |
| 20260507214618 | 10 | 101 | 8.0 | 19.3 | 0.03 | 3.12 | 3.12 | 98 | 1002.8 |
| 20260507213108 | 10 | 149 | 11.3 | 19.3 | 0.05 | 3.12 | 3.12 | 99 | 1003.0 |
| 20260507211620 | 10 | 159 | 8.0 | 19.3 | 0.13 | 3.12 | 3.12 | 99 | 1002.7 |
| 20260507210057 | 10 | 177 | 6.4 | 14.5 | 0.23 | 3.10 | 3.10 | 98 | 1002.4 |
| 20260507204607 | 10 | 128 | 9.7 | 19.3 | 0.43 | 3.10 | 3.10 | 98 | 1002.2 |
| 20260507203101 | 10 | 136 | 8.0 | 19.3 | 0.64 | 3.07 | 3.07 | 98 | 1002.8 |
| 20260507201608 | 10 | 82 | 9.7 | 24.1 | 0.89 | 2.97 | 2.97 | 98 | 1003.1 |
| 20260507200059 | 10 | 164 | 4.8 | 11.3 | 1.04 | 2.87 | 2.87 | 98 | 1003.4 |
| 20260507194633 | 10 | 117 | 6.4 | 17.7 | 1.14 | 2.64 | 2.64 | 98 | 1004.1 |
| 20260507193056 | 11 | 148 | 11.3 | 24.1 | 1.24 | 2.44 | 2.44 | 97 | 1004.6 |
| 20260507191601 | 11 | 145 | 9.7 | 17.7 | 1.30 | 2.11 | 2.11 | 97 | 1004.9 |
| 20260507190057 | 11 | 149 | 16.1 | 35.4 | 1.32 | 1.83 | 1.83 | 96 | 1004.8 |
| 20260507184607 | 11 | 187 | 19.3 | 40.2 | 1.17 | 1.52 | 1.52 | 96 | 1004.9 |
| 20260507183101 | 11 | 209 | 17.7 | 32.2 | 0.84 | 1.19 | 1.19 | 96 | 1005.3 |
| 20260507181556 | 12 | 180 | 17.7 | 32.2 | 0.51 | 0.81 | 0.81 | 96 | 1005.5 |
| 20260507180106 | 12 | 195 | 12.9 | 30.6 | 0.18 | 0.46 | 0.46 | 96 | 1005.0 |
| 20260507174557 | 12 | 183 | 8.0 | 25.7 | 0.08 | 0.36 | 0.36 | 96 | 1004.8 |
| 20260507173057 | 12 | 191 | 11.3 | 25.7 | 0.08 | 0.36 | 0.36 | 96 | 1004.9 |
| 20260507171600 | 12 | 184 | 6.4 | 16.1 | 0.03 | 0.30 | 0.30 | 95 | 1005.2 |
| 20260507170057 | 12 | 145 | 8.0 | 29.0 | 0.00 | 0.28 | 0.28 | 94 | 1005.8 |
| 20260507164607 | 12 | 168 | 16.1 | 40.2 | 0.00 | 0.28 | 0.28 | 92 | 1006.0 |
| 20260507163103 | 12 | 162 | 17.7 | 32.2 | 0.00 | 0.28 | 0.28 | 92 | 1006.5 |
| 20260507161559 | 12 | 195 | 16.1 | 45.1 | 0.00 | 0.28 | 0.28 | 91 | 1007.1 |
| 20260507160058 | 13 | 176 | 22.5 | 38.6 | 0.00 | 0.28 | 0.28 | 90 | 1007.1 |
| 20260507154605 | 13 | 171 | 14.5 | 48.3 | 0.00 | 0.28 | 0.28 | 90 | 1007.6 |
| 20260507153058 | 13 | 151 | 20.9 | 38.6 | 0.00 | 0.28 | 0.28 | 91 | 1007.6 |
| 20260507151557 | 13 | 150 | 12.9 | 27.4 | 0.00 | 0.28 | 0.28 | 92 | 1007.9 |
| 20260507150059 | 13 | 139 | 12.9 | 33.8 | 0.00 | 0.28 | 0.28 | 92 | 1008.2 |
| 20260507144559 | 13 | 165 | 17.7 | 38.6 | 0.00 | 0.28 | 0.28 | 92 | 1008.4 |
| 20260507143110 | 13 | 191 | 24.1 | 45.1 | 0.00 | 0.28 | 0.28 | 93 | 1008.6 |
| 20260507141558 | 13 | 157 | 14.5 | 48.3 | 0.00 | 0.28 | 0.28 | 93 | 1009.0 |
| 20260507140100 | 13 | 184 | 16.1 | 43.5 | 0.00 | 0.28 | 0.28 | 94 | 1009.5 |
| 20260507134559 | 13 | 145 | 27.4 | 53.1 | 0.00 | 0.28 | 0.28 | 94 | 1009.3 |
| 20260507133057 | 13 | 179 | 24.1 | 43.5 | 0.00 | 0.28 | 0.28 | 94 | 1009.6 |
| 20260507131612 | 13 | 135 | 17.7 | 38.6 | 0.00 | 0.28 | 0.28 | 94 | 1009.7 |
| 20260507130100 | 13 | 197 | 25.7 | 43.5 | 0.00 | 0.28 | 0.28 | 96 | 1010.2 |
| 20260507124558 | 12 | 173 | 19.3 | 32.2 | 0.00 | 0.28 | 0.28 | 97 | 1009.6 |
| 20260507123056 | 12 | 180 | 22.5 | 46.7 | 0.05 | 0.28 | 0.28 | 98 | 1010.1 |
| 20260507121557 | 12 | 170 | 14.5 | 24.1 | 0.13 | 0.28 | 0.28 | 98 | 1010.4 |
| 20260507120056 | 11 | 147 | 11.3 | 25.7 | 0.13 | 0.28 | 0.28 | 98 | 1010.5 |
| 20260507114558 | 11 | 106 | 9.7 | 24.1 | 0.13 | 0.28 | 0.28 | 98 | 1011.2 |
| 20260507113100 | 11 | 160 | 12.9 | 27.4 | 0.10 | 0.23 | 0.23 | 98 | 1011.6 |
| 20260507111556 | 11 | 118 | 8.0 | 19.3 | 0.08 | 0.15 | 0.15 | 98 | 1011.7 |
| 20260507110057 | 11 | 147 | 11.3 | 22.5 | 0.08 | 0.15 | 0.15 | 98 | 1011.7 |
| 20260507104556 | 11 | 105 | 8.0 | 16.1 | 0.08 | 0.15 | 0.15 | 98 | 1011.5 |
| 20260507103058 | 11 | 191 | 8.0 | 17.7 | 0.05 | 0.13 | 0.13 | 99 | 1012.2 |
| 20260507101558 | 11 | 189 | 8.0 | 19.3 | 0.03 | 0.08 | 0.08 | 99 | 1012.5 |
| 20260507100056 | 11 | 159 | 1.6 | 6.4 | 0.03 | 0.08 | 0.08 | 99 | 1012.4 |
| 20260507094558 | 11 | 139 | 9.7 | 17.7 | 0.03 | 0.08 | 0.08 | 99 | 1012.3 |
| 20260507093101 | 11 | 170 | 8.0 | 25.7 | 0.03 | 0.08 | 0.08 | 99 | 1012.6 |
| 20260507091558 | 10 | 164 | 11.3 | 25.7 | 0.00 | 0.05 | 0.05 | 99 | 1013.1 |
| 20260507090057 | 10 | 0 | 0.0 | 3.2 | 0.00 | 0.05 | 0.05 | 98 | 1013.0 |
| 20260507084556 | 10 | 139 | 3.2 | 12.9 | 0.00 | 0.05 | 0.05 | 98 | 1012.8 |
| 20260507083101 | 10 | 188 | 3.2 | 16.1 | 0.00 | 0.05 | 0.05 | 99 | 1012.7 |
| 20260507081556 | 10 | 162 | 4.8 | 12.9 | 0.00 | 0.05 | 0.05 | 98 | 1012.7 |
| 20260507080113 | 10 | 198 | 3.2 | 8.0 | 0.00 | 0.05 | 0.05 | 98 | 1013.1 |
| 20260507074555 | 10 | 173 | 1.6 | 16.1 | 0.00 | 0.05 | 0.05 | 98 | 1013.3 |
| 20260507073057 | 10 | 172 | 6.4 | 14.5 | 0.00 | 0.05 | 0.05 | 98 | 1013.6 |
| 20260507071610 | 10 | 130 | 6.4 | 11.3 | 0.00 | 0.05 | 0.05 | 98 | 1013.8 |
| 20260507070057 | 10 | 156 | 9.7 | 17.7 | 0.03 | 0.05 | 0.05 | 98 | 1013.8 |
| 20260507064557 | 10 | 142 | 11.3 | 22.5 | 0.05 | 0.05 | 0.05 | 97 | 1013.9 |
| 20260507063058 | 10 | 124 | 8.0 | 19.3 | 0.05 | 0.05 | 0.05 | 97 | 1014.1 |
| 20260507061600 | 10 | 171 | 8.0 | 20.9 | 0.05 | 0.05 | 0.05 | 97 | 1014.4 |
| 20260507060058 | 10 | 168 | 8.0 | 17.7 | 0.03 | 0.03 | 0.03 | 96 | 1014.4 |
| 20260507054556 | 10 | 130 | 6.4 | 14.5 | 0.00 | 0.00 | 0.00 | 96 | 1014.8 |
| 20260507053127 | 10 | 97 | 8.0 | 12.9 | 0.00 | 0.00 | 0.00 | 96 | 1015.0 |
| 20260507051605 | 11 | 130 | 4.8 | 14.5 | 0.00 | 0.00 | 0.00 | 95 | 1015.2 |
| 20260507050108 | 11 | 111 | 4.8 | 12.9 | 0.00 | 0.00 | 0.00 | 95 | 1015.5 |
| 20260507044559 | 10 | 142 | 6.4 | 14.5 | 0.00 | 0.00 | 0.00 | 96 | 1015.9 |